sensor_id;sensor_type;location;lat;lon;timestamp;P1;durP1;ratioP1;P2;durP2;ratioP2
8349;SDS011;60699;48.946;8.412;2022-12-18T00:02:03;13.65;;;10.90;;
8349;SDS011;60699;48.946;8.412;2022-12-18T00:04:30;20.38;;;10.40;;
8349;SDS011;60699;48.946;8.412;2022-12-18T00:06:57;25.23;;;10.88;;
8349;SDS011;60699;48.946;8.412;2022-12-18T00:09:24;19.15;;;10.10;;
8349;SDS011;60699;48.946;8.412;2022-12-18T00:11:51;20.20;;;12.25;;
8349;SDS011;60699;48.946;8.412;2022-12-18T00:14:19;13.27;;;9.43;;
8349;SDS011;60699;48.946;8.412;2022-12-18T00:16:46;21.25;;;8.85;;
8349;SDS011;60699;48.946;8.412;2022-12-18T00:19:14;16.23;;;10.02;;
8349;SDS011;60699;48.946;8.412;2022-12-18T00:21:41;19.33;;;12.07;;
8349;SDS011;60699;48.946;8.412;2022-12-18T00:24:09;10.30;;;8.60;;
8349;SDS011;60699;48.946;8.412;2022-12-18T00:26:36;21.20;;;11.45;;
8349;SDS011;60699;48.946;8.412;2022-12-18T00:29:04;18.40;;;9.35;;
8349;SDS011;60699;48.946;8.412;2022-12-18T00:31:33;20.05;;;11.57;;
8349;SDS011;60699;48.946;8.412;2022-12-18T00:34:00;14.60;;;8.82;;
8349;SDS011;60699;48.946;8.412;2022-12-18T00:36:28;27.02;;;11.15;;
8349;SDS011;60699;48.946;8.412;2022-12-18T00:38:56;15.90;;;10.23;;
8349;SDS011;60699;48.946;8.412;2022-12-18T00:41:24;20.88;;;10.10;;
8349;SDS011;60699;48.946;8.412;2022-12-18T00:44:09;19.02;;;8.07;;
8349;SDS011;60699;48.946;8.412;2022-12-18T00:46:38;18.95;;;10.55;;
8349;SDS011;60699;48.946;8.412;2022-12-18T00:49:06;16.73;;;10.75;;
8349;SDS011;60699;48.946;8.412;2022-12-18T00:51:33;20.88;;;11.35;;
8349;SDS011;60699;48.946;8.412;2022-12-18T00:54:00;19.98;;;11.85;;
8349;SDS011;60699;48.946;8.412;2022-12-18T00:56:27;21.98;;;10.05;;
8349;SDS011;60699;48.946;8.412;2022-12-18T00:58:54;25.35;;;12.75;;
8349;SDS011;60699;48.946;8.412;2022-12-18T01:01:21;18.92;;;10.85;;
8349;SDS011;60699;48.946;8.412;2022-12-18T01:03:50;30.08;;;13.95;;
8349;SDS011;60699;48.946;8.412;2022-12-18T01:06:17;24.48;;;12.38;;
8349;SDS011;60699;48.946;8.412;2022-12-18T01:08:44;21.30;;;11.63;;
8349;SDS011;60699;48.946;8.412;2022-12-18T01:11:11;32.67;;;13.57;;
8349;SDS011;60699;48.946;8.412;2022-12-18T01:13:39;33.25;;;12.68;;
8349;SDS011;60699;48.946;8.412;2022-12-18T01:16:06;25.77;;;11.25;;
8349;SDS011;60699;48.946;8.412;2022-12-18T01:18:33;24.35;;;11.98;;
8349;SDS011;60699;48.946;8.412;2022-12-18T01:21:02;19.38;;;11.70;;
8349;SDS011;60699;48.946;8.412;2022-12-18T01:23:32;16.90;;;10.75;;
8349;SDS011;60699;48.946;8.412;2022-12-18T01:26:03;23.38;;;11.75;;
8349;SDS011;60699;48.946;8.412;2022-12-18T01:28:30;23.50;;;12.45;;
8349;SDS011;60699;48.946;8.412;2022-12-18T01:30:57;31.80;;;14.15;;
8349;SDS011;60699;48.946;8.412;2022-12-18T01:33:24;26.50;;;12.35;;
8349;SDS011;60699;48.946;8.412;2022-12-18T01:35:51;17.63;;;10.88;;
8349;SDS011;60699;48.946;8.412;2022-12-18T01:38:19;40.88;;;16.98;;
8349;SDS011;60699;48.946;8.412;2022-12-18T01:40:46;25.98;;;9.52;;
8349;SDS011;60699;48.946;8.412;2022-12-18T01:43:13;28.05;;;14.52;;
8349;SDS011;60699;48.946;8.412;2022-12-18T01:45:40;22.65;;;14.40;;
8349;SDS011;60699;48.946;8.412;2022-12-18T01:48:08;30.77;;;12.95;;
8349;SDS011;60699;48.946;8.412;2022-12-18T01:50:36;16.25;;;10.00;;
8349;SDS011;60699;48.946;8.412;2022-12-18T01:53:05;15.90;;;12.07;;
8349;SDS011;60699;48.946;8.412;2022-12-18T01:55:36;14.55;;;9.60;;
8349;SDS011;60699;48.946;8.412;2022-12-18T01:58:05;27.35;;;14.77;;
8349;SDS011;60699;48.946;8.412;2022-12-18T02:00:32;26.35;;;12.30;;
8349;SDS011;60699;48.946;8.412;2022-12-18T02:02:59;22.60;;;13.63;;
8349;SDS011;60699;48.946;8.412;2022-12-18T02:05:29;34.67;;;13.15;;
8349;SDS011;60699;48.946;8.412;2022-12-18T02:08:02;23.30;;;10.98;;
8349;SDS011;60699;48.946;8.412;2022-12-18T02:10:32;30.35;;;15.25;;
8349;SDS011;60699;48.946;8.412;2022-12-18T02:13:05;25.63;;;13.80;;
8349;SDS011;60699;48.946;8.412;2022-12-18T02:15:36;35.95;;;12.70;;
8349;SDS011;60699;48.946;8.412;2022-12-18T02:18:06;30.75;;;13.38;;
8349;SDS011;60699;48.946;8.412;2022-12-18T02:20:35;16.60;;;12.35;;
8349;SDS011;60699;48.946;8.412;2022-12-18T02:23:09;15.27;;;12.32;;
8349;SDS011;60699;48.946;8.412;2022-12-18T02:28:35;24.25;;;9.45;;
8349;SDS011;60699;48.946;8.412;2022-12-18T02:31:04;30.40;;;12.80;;
8349;SDS011;60699;48.946;8.412;2022-12-18T02:33:32;25.23;;;12.50;;
8349;SDS011;60699;48.946;8.412;2022-12-18T02:36:00;34.42;;;10.98;;
8349;SDS011;60699;48.946;8.412;2022-12-18T02:38:28;27.95;;;16.50;;
8349;SDS011;60699;48.946;8.412;2022-12-18T02:40:56;22.17;;;12.00;;
8349;SDS011;60699;48.946;8.412;2022-12-18T02:43:23;27.70;;;12.77;;
8349;SDS011;60699;48.946;8.412;2022-12-18T02:45:52;31.60;;;14.65;;
8349;SDS011;60699;48.946;8.412;2022-12-18T02:48:22;27.10;;;12.10;;
8349;SDS011;60699;48.946;8.412;2022-12-18T02:50:51;28.77;;;13.57;;
8349;SDS011;60699;48.946;8.412;2022-12-18T02:53:22;30.27;;;13.43;;
8349;SDS011;60699;48.946;8.412;2022-12-18T02:55:53;39.50;;;15.77;;
8349;SDS011;60699;48.946;8.412;2022-12-18T02:58:26;19.35;;;13.65;;
8349;SDS011;60699;48.946;8.412;2022-12-18T03:00:58;34.08;;;15.23;;
8349;SDS011;60699;48.946;8.412;2022-12-18T03:03:27;31.48;;;14.48;;
8349;SDS011;60699;48.946;8.412;2022-12-18T03:05:56;33.13;;;14.52;;
8349;SDS011;60699;48.946;8.412;2022-12-18T03:08:27;40.28;;;14.15;;
8349;SDS011;60699;48.946;8.412;2022-12-18T03:10:56;30.70;;;15.77;;
8349;SDS011;60699;48.946;8.412;2022-12-18T03:13:26;31.80;;;14.65;;
8349;SDS011;60699;48.946;8.412;2022-12-18T03:15:54;44.42;;;16.35;;
8349;SDS011;60699;48.946;8.412;2022-12-18T03:18:25;25.85;;;13.52;;
8349;SDS011;60699;48.946;8.412;2022-12-18T03:20:52;30.40;;;14.07;;
8349;SDS011;60699;48.946;8.412;2022-12-18T03:23:21;33.88;;;13.50;;
8349;SDS011;60699;48.946;8.412;2022-12-18T03:25:49;34.05;;;12.00;;
8349;SDS011;60699;48.946;8.412;2022-12-18T03:28:19;26.35;;;13.18;;
8349;SDS011;60699;48.946;8.412;2022-12-18T03:30:47;22.42;;;12.57;;
8349;SDS011;60699;48.946;8.412;2022-12-18T03:33:18;28.92;;;13.80;;
8349;SDS011;60699;48.946;8.412;2022-12-18T03:35:47;33.03;;;16.33;;
8349;SDS011;60699;48.946;8.412;2022-12-18T03:38:14;32.90;;;15.18;;
8349;SDS011;60699;48.946;8.412;2022-12-18T03:40:47;33.22;;;16.15;;
8349;SDS011;60699;48.946;8.412;2022-12-18T03:43:16;30.60;;;15.38;;
8349;SDS011;60699;48.946;8.412;2022-12-18T03:45:47;29.27;;;13.63;;
8349;SDS011;60699;48.946;8.412;2022-12-18T03:48:16;29.10;;;13.93;;
8349;SDS011;60699;48.946;8.412;2022-12-18T03:50:48;31.33;;;12.48;;
8349;SDS011;60699;48.946;8.412;2022-12-18T03:53:24;22.20;;;11.27;;
8349;SDS011;60699;48.946;8.412;2022-12-18T03:55:52;24.13;;;12.20;;
8349;SDS011;60699;48.946;8.412;2022-12-18T03:58:20;29.00;;;10.25;;
8349;SDS011;60699;48.946;8.412;2022-12-18T04:00:49;19.30;;;12.32;;
8349;SDS011;60699;48.946;8.412;2022-12-18T04:03:18;20.75;;;13.38;;
8349;SDS011;60699;48.946;8.412;2022-12-18T04:05:46;13.93;;;11.27;;
8349;SDS011;60699;48.946;8.412;2022-12-18T04:08:15;30.92;;;11.70;;
8349;SDS011;60699;48.946;8.412;2022-12-18T04:10:44;25.05;;;11.90;;
8349;SDS011;60699;48.946;8.412;2022-12-18T04:13:11;22.95;;;11.90;;
8349;SDS011;60699;48.946;8.412;2022-12-18T04:15:38;31.23;;;13.93;;
8349;SDS011;60699;48.946;8.412;2022-12-18T04:18:05;23.23;;;12.40;;
8349;SDS011;60699;48.946;8.412;2022-12-18T04:20:32;27.38;;;11.70;;
8349;SDS011;60699;48.946;8.412;2022-12-18T04:22:59;22.05;;;11.43;;
8349;SDS011;60699;48.946;8.412;2022-12-18T04:25:26;20.52;;;9.73;;
8349;SDS011;60699;48.946;8.412;2022-12-18T04:27:54;35.13;;;11.30;;
8349;SDS011;60699;48.946;8.412;2022-12-18T04:30:21;22.73;;;11.50;;
8349;SDS011;60699;48.946;8.412;2022-12-18T04:32:48;25.00;;;14.10;;
8349;SDS011;60699;48.946;8.412;2022-12-18T04:35:16;26.40;;;11.95;;
8349;SDS011;60699;48.946;8.412;2022-12-18T04:37:43;21.40;;;10.88;;
8349;SDS011;60699;48.946;8.412;2022-12-18T04:40:10;31.52;;;13.68;;
8349;SDS011;60699;48.946;8.412;2022-12-18T04:42:38;27.80;;;13.93;;
8349;SDS011;60699;48.946;8.412;2022-12-18T04:45:07;35.75;;;13.43;;
8349;SDS011;60699;48.946;8.412;2022-12-18T04:47:34;27.73;;;12.20;;
8349;SDS011;60699;48.946;8.412;2022-12-18T04:50:02;28.65;;;10.93;;
8349;SDS011;60699;48.946;8.412;2022-12-18T04:52:29;22.15;;;13.18;;
8349;SDS011;60699;48.946;8.412;2022-12-18T04:54:56;18.90;;;10.95;;
8349;SDS011;60699;48.946;8.412;2022-12-18T04:57:23;31.08;;;14.63;;
8349;SDS011;60699;48.946;8.412;2022-12-18T04:59:51;23.17;;;12.82;;
8349;SDS011;60699;48.946;8.412;2022-12-18T05:02:19;26.45;;;11.55;;
8349;SDS011;60699;48.946;8.412;2022-12-18T05:04:46;28.80;;;11.27;;
8349;SDS011;60699;48.946;8.412;2022-12-18T05:07:13;22.65;;;12.10;;
8349;SDS011;60699;48.946;8.412;2022-12-18T05:09:40;31.25;;;15.45;;
8349;SDS011;60699;48.946;8.412;2022-12-18T05:12:07;49.95;;;13.80;;
8349;SDS011;60699;48.946;8.412;2022-12-18T05:14:34;24.30;;;10.88;;
8349;SDS011;60699;48.946;8.412;2022-12-18T05:17:01;27.75;;;13.30;;
8349;SDS011;60699;48.946;8.412;2022-12-18T05:19:30;32.05;;;13.15;;
8349;SDS011;60699;48.946;8.412;2022-12-18T05:21:57;18.27;;;13.05;;
8349;SDS011;60699;48.946;8.412;2022-12-18T05:24:24;23.98;;;12.10;;
8349;SDS011;60699;48.946;8.412;2022-12-18T05:26:51;29.02;;;14.80;;
8349;SDS011;60699;48.946;8.412;2022-12-18T05:29:18;20.48;;;11.35;;
8349;SDS011;60699;48.946;8.412;2022-12-18T05:31:45;21.52;;;10.88;;
8349;SDS011;60699;48.946;8.412;2022-12-18T05:34:12;30.77;;;12.25;;
8349;SDS011;60699;48.946;8.412;2022-12-18T05:36:40;27.60;;;13.18;;
8349;SDS011;60699;48.946;8.412;2022-12-18T05:39:07;26.73;;;14.13;;
8349;SDS011;60699;48.946;8.412;2022-12-18T05:41:34;34.70;;;15.20;;
8349;SDS011;60699;48.946;8.412;2022-12-18T05:44:02;30.58;;;15.02;;
8349;SDS011;60699;48.946;8.412;2022-12-18T05:46:29;32.45;;;18.35;;
8349;SDS011;60699;48.946;8.412;2022-12-18T05:48:58;29.30;;;13.00;;
8349;SDS011;60699;48.946;8.412;2022-12-18T05:51:25;29.48;;;12.20;;
8349;SDS011;60699;48.946;8.412;2022-12-18T05:53:54;27.05;;;12.10;;
8349;SDS011;60699;48.946;8.412;2022-12-18T05:56:22;34.00;;;13.45;;
8349;SDS011;60699;48.946;8.412;2022-12-18T05:58:50;31.73;;;14.57;;
8349;SDS011;60699;48.946;8.412;2022-12-18T06:01:18;31.08;;;13.90;;
8349;SDS011;60699;48.946;8.412;2022-12-18T06:03:46;23.67;;;12.45;;
8349;SDS011;60699;48.946;8.412;2022-12-18T06:06:13;26.52;;;14.90;;
8349;SDS011;60699;48.946;8.412;2022-12-18T06:08:40;21.35;;;11.32;;
8349;SDS011;60699;48.946;8.412;2022-12-18T06:11:09;15.95;;;8.82;;
8349;SDS011;60699;48.946;8.412;2022-12-18T06:13:36;20.38;;;11.77;;
8349;SDS011;60699;48.946;8.412;2022-12-18T06:16:03;21.50;;;10.57;;
8349;SDS011;60699;48.946;8.412;2022-12-18T06:18:30;24.83;;;10.90;;
8349;SDS011;60699;48.946;8.412;2022-12-18T06:20:58;22.00;;;10.10;;
8349;SDS011;60699;48.946;8.412;2022-12-18T06:23:25;32.38;;;15.85;;
8349;SDS011;60699;48.946;8.412;2022-12-18T06:25:53;20.33;;;11.27;;
8349;SDS011;60699;48.946;8.412;2022-12-18T06:28:21;23.60;;;11.75;;
8349;SDS011;60699;48.946;8.412;2022-12-18T06:30:48;13.43;;;8.85;;
8349;SDS011;60699;48.946;8.412;2022-12-18T06:33:15;15.93;;;9.60;;
8349;SDS011;60699;48.946;8.412;2022-12-18T06:35:42;15.15;;;8.60;;
8349;SDS011;60699;48.946;8.412;2022-12-18T06:38:09;17.27;;;9.57;;
8349;SDS011;60699;48.946;8.412;2022-12-18T06:40:37;17.20;;;9.02;;
8349;SDS011;60699;48.946;8.412;2022-12-18T06:43:05;14.88;;;9.38;;
8349;SDS011;60699;48.946;8.412;2022-12-18T06:45:33;22.30;;;12.77;;
8349;SDS011;60699;48.946;8.412;2022-12-18T06:48:00;20.27;;;9.45;;
8349;SDS011;60699;48.946;8.412;2022-12-18T06:50:27;25.90;;;11.75;;
8349;SDS011;60699;48.946;8.412;2022-12-18T06:52:54;24.33;;;11.95;;
8349;SDS011;60699;48.946;8.412;2022-12-18T06:55:21;21.75;;;10.98;;
8349;SDS011;60699;48.946;8.412;2022-12-18T06:57:48;23.35;;;10.40;;
8349;SDS011;60699;48.946;8.412;2022-12-18T07:00:16;34.15;;;11.88;;
8349;SDS011;60699;48.946;8.412;2022-12-18T07:02:44;21.02;;;10.30;;
8349;SDS011;60699;48.946;8.412;2022-12-18T07:05:11;23.75;;;11.20;;
8349;SDS011;60699;48.946;8.412;2022-12-18T07:07:38;18.60;;;10.35;;
8349;SDS011;60699;48.946;8.412;2022-12-18T07:10:05;23.45;;;11.40;;
8349;SDS011;60699;48.946;8.412;2022-12-18T07:12:32;27.80;;;13.95;;
8349;SDS011;60699;48.946;8.412;2022-12-18T07:14:59;35.70;;;12.20;;
8349;SDS011;60699;48.946;8.412;2022-12-18T07:17:27;18.83;;;11.10;;
8349;SDS011;60699;48.946;8.412;2022-12-18T07:19:55;35.03;;;15.05;;
8349;SDS011;60699;48.946;8.412;2022-12-18T07:22:23;27.70;;;12.07;;
8349;SDS011;60699;48.946;8.412;2022-12-18T07:24:51;28.65;;;12.02;;
8349;SDS011;60699;48.946;8.412;2022-12-18T07:27:18;26.75;;;11.80;;
8349;SDS011;60699;48.946;8.412;2022-12-18T07:29:45;23.30;;;12.55;;
8349;SDS011;60699;48.946;8.412;2022-12-18T07:32:12;22.17;;;10.13;;
8349;SDS011;60699;48.946;8.412;2022-12-18T07:34:39;18.58;;;10.05;;
8349;SDS011;60699;48.946;8.412;2022-12-18T07:37:08;24.83;;;11.23;;
8349;SDS011;60699;48.946;8.412;2022-12-18T07:39:35;17.48;;;9.07;;
8349;SDS011;60699;48.946;8.412;2022-12-18T07:42:02;18.83;;;8.43;;
8349;SDS011;60699;48.946;8.412;2022-12-18T07:44:46;14.70;;;8.57;;
8349;SDS011;60699;48.946;8.412;2022-12-18T07:47:13;17.02;;;9.65;;
8349;SDS011;60699;48.946;8.412;2022-12-18T07:49:40;17.83;;;8.90;;
8349;SDS011;60699;48.946;8.412;2022-12-18T07:52:09;13.18;;;9.00;;
8349;SDS011;60699;48.946;8.412;2022-12-18T07:54:37;20.27;;;10.02;;
8349;SDS011;60699;48.946;8.412;2022-12-18T07:57:05;17.58;;;7.82;;
8349;SDS011;60699;48.946;8.412;2022-12-18T07:59:32;25.50;;;10.48;;
8349;SDS011;60699;48.946;8.412;2022-12-18T08:01:59;22.15;;;11.57;;
8349;SDS011;60699;48.946;8.412;2022-12-18T08:04:26;15.70;;;9.32;;
8349;SDS011;60699;48.946;8.412;2022-12-18T08:06:53;24.77;;;9.90;;
8349;SDS011;60699;48.946;8.412;2022-12-18T08:09:22;15.65;;;8.65;;
8349;SDS011;60699;48.946;8.412;2022-12-18T08:11:49;22.45;;;11.23;;
8349;SDS011;60699;48.946;8.412;2022-12-18T08:14:16;23.48;;;9.65;;
8349;SDS011;60699;48.946;8.412;2022-12-18T08:16:43;20.25;;;11.70;;
8349;SDS011;60699;48.946;8.412;2022-12-18T08:19:10;29.08;;;10.02;;
8349;SDS011;60699;48.946;8.412;2022-12-18T08:21:42;26.98;;;11.02;;
8349;SDS011;60699;48.946;8.412;2022-12-18T08:24:09;20.90;;;11.60;;
8349;SDS011;60699;48.946;8.412;2022-12-18T08:26:38;31.27;;;13.10;;
8349;SDS011;60699;48.946;8.412;2022-12-18T08:29:05;20.60;;;11.48;;
8349;SDS011;60699;48.946;8.412;2022-12-18T08:31:32;24.60;;;9.68;;
8349;SDS011;60699;48.946;8.412;2022-12-18T08:33:59;21.45;;;11.57;;
8349;SDS011;60699;48.946;8.412;2022-12-18T08:36:26;26.00;;;12.50;;
8349;SDS011;60699;48.946;8.412;2022-12-18T08:38:53;21.38;;;11.02;;
8349;SDS011;60699;48.946;8.412;2022-12-18T08:41:20;24.90;;;13.43;;
8349;SDS011;60699;48.946;8.412;2022-12-18T08:43:49;28.90;;;13.65;;
8349;SDS011;60699;48.946;8.412;2022-12-18T08:46:34;20.85;;;9.73;;
8349;SDS011;60699;48.946;8.412;2022-12-18T08:49:02;22.08;;;12.95;;
8349;SDS011;60699;48.946;8.412;2022-12-18T08:51:29;32.72;;;14.15;;
8349;SDS011;60699;48.946;8.412;2022-12-18T08:53:56;25.70;;;13.25;;
8349;SDS011;60699;48.946;8.412;2022-12-18T08:56:24;29.15;;;13.40;;
8349;SDS011;60699;48.946;8.412;2022-12-18T08:58:52;32.00;;;14.82;;
8349;SDS011;60699;48.946;8.412;2022-12-18T09:01:20;29.23;;;13.77;;
8349;SDS011;60699;48.946;8.412;2022-12-18T09:03:47;35.47;;;14.20;;
8349;SDS011;60699;48.946;8.412;2022-12-18T09:06:14;32.65;;;13.98;;
8349;SDS011;60699;48.946;8.412;2022-12-18T09:08:42;22.70;;;14.77;;
8349;SDS011;60699;48.946;8.412;2022-12-18T09:11:11;26.52;;;13.95;;
8349;SDS011;60699;48.946;8.412;2022-12-18T09:13:39;26.63;;;13.25;;
8349;SDS011;60699;48.946;8.412;2022-12-18T09:16:07;28.75;;;13.25;;
8349;SDS011;60699;48.946;8.412;2022-12-18T09:18:35;23.23;;;13.05;;
8349;SDS011;60699;48.946;8.412;2022-12-18T09:21:07;25.98;;;11.27;;
8349;SDS011;60699;48.946;8.412;2022-12-18T09:23:34;25.85;;;12.80;;
8349;SDS011;60699;48.946;8.412;2022-12-18T09:26:01;19.40;;;12.18;;
8349;SDS011;60699;48.946;8.412;2022-12-18T09:28:29;25.50;;;11.93;;
8349;SDS011;60699;48.946;8.412;2022-12-18T09:30:56;34.25;;;11.70;;
8349;SDS011;60699;48.946;8.412;2022-12-18T09:33:24;34.85;;;13.43;;
8349;SDS011;60699;48.946;8.412;2022-12-18T09:35:51;26.23;;;14.00;;
8349;SDS011;60699;48.946;8.412;2022-12-18T09:38:18;33.50;;;13.65;;
8349;SDS011;60699;48.946;8.412;2022-12-18T09:40:46;30.65;;;12.35;;
8349;SDS011;60699;48.946;8.412;2022-12-18T09:43:15;24.15;;;13.88;;
8349;SDS011;60699;48.946;8.412;2022-12-18T09:45:44;21.67;;;12.48;;
8349;SDS011;60699;48.946;8.412;2022-12-18T09:48:14;19.75;;;12.40;;
8349;SDS011;60699;48.946;8.412;2022-12-18T09:50:44;25.63;;;14.85;;
8349;SDS011;60699;48.946;8.412;2022-12-18T09:53:12;32.28;;;12.52;;
8349;SDS011;60699;48.946;8.412;2022-12-18T09:55:41;28.67;;;12.95;;
8349;SDS011;60699;48.946;8.412;2022-12-18T09:58:13;28.98;;;15.38;;
8349;SDS011;60699;48.946;8.412;2022-12-18T10:00:41;43.85;;;17.10;;
8349;SDS011;60699;48.946;8.412;2022-12-18T10:03:08;32.88;;;12.98;;
8349;SDS011;60699;48.946;8.412;2022-12-18T10:05:37;33.78;;;15.63;;
8349;SDS011;60699;48.946;8.412;2022-12-18T10:08:10;31.52;;;12.60;;
8349;SDS011;60699;48.946;8.412;2022-12-18T10:10:40;32.85;;;14.18;;
8349;SDS011;60699;48.946;8.412;2022-12-18T10:13:10;25.58;;;14.35;;
8349;SDS011;60699;48.946;8.412;2022-12-18T10:15:44;32.15;;;17.13;;
8349;SDS011;60699;48.946;8.412;2022-12-18T10:18:19;27.90;;;13.63;;
8349;SDS011;60699;48.946;8.412;2022-12-18T10:20:48;32.97;;;14.50;;
8349;SDS011;60699;48.946;8.412;2022-12-18T10:23:17;31.23;;;16.20;;
8349;SDS011;60699;48.946;8.412;2022-12-18T10:25:51;34.45;;;12.60;;
8349;SDS011;60699;48.946;8.412;2022-12-18T10:28:21;29.23;;;14.60;;
8349;SDS011;60699;48.946;8.412;2022-12-18T10:30:48;23.25;;;12.57;;
8349;SDS011;60699;48.946;8.412;2022-12-18T10:33:16;24.30;;;12.63;;
8349;SDS011;60699;48.946;8.412;2022-12-18T10:35:44;26.50;;;13.45;;
8349;SDS011;60699;48.946;8.412;2022-12-18T10:38:23;33.80;;;13.65;;
8349;SDS011;60699;48.946;8.412;2022-12-18T10:40:51;27.88;;;14.77;;
8349;SDS011;60699;48.946;8.412;2022-12-18T10:43:20;30.27;;;15.20;;
8349;SDS011;60699;48.946;8.412;2022-12-18T10:48:30;27.48;;;15.50;;
8349;SDS011;60699;48.946;8.412;2022-12-18T10:50:58;32.10;;;15.45;;
8349;SDS011;60699;48.946;8.412;2022-12-18T10:53:27;26.90;;;12.50;;
8349;SDS011;60699;48.946;8.412;2022-12-18T10:55:54;32.33;;;14.23;;
8349;SDS011;60699;48.946;8.412;2022-12-18T10:58:23;36.00;;;15.65;;
8349;SDS011;60699;48.946;8.412;2022-12-18T11:03:34;24.40;;;13.43;;
8349;SDS011;60699;48.946;8.412;2022-12-18T11:06:02;32.50;;;16.45;;
8349;SDS011;60699;48.946;8.412;2022-12-18T11:08:31;33.88;;;14.52;;
8349;SDS011;60699;48.946;8.412;2022-12-18T11:10:58;38.95;;;15.05;;
8349;SDS011;60699;48.946;8.412;2022-12-18T11:13:26;34.22;;;16.45;;
8349;SDS011;60699;48.946;8.412;2022-12-18T11:15:53;33.30;;;14.82;;
8349;SDS011;60699;48.946;8.412;2022-12-18T11:18:22;30.38;;;13.90;;
8349;SDS011;60699;48.946;8.412;2022-12-18T11:20:52;38.17;;;15.25;;
8349;SDS011;60699;48.946;8.412;2022-12-18T11:23:20;35.13;;;15.05;;
8349;SDS011;60699;48.946;8.412;2022-12-18T11:25:53;22.77;;;13.57;;
8349;SDS011;60699;48.946;8.412;2022-12-18T11:28:25;44.42;;;15.57;;
8349;SDS011;60699;48.946;8.412;2022-12-18T11:31:08;44.22;;;18.05;;
8349;SDS011;60699;48.946;8.412;2022-12-18T11:33:36;34.83;;;15.20;;
8349;SDS011;60699;48.946;8.412;2022-12-18T11:36:04;34.20;;;15.95;;
8349;SDS011;60699;48.946;8.412;2022-12-18T11:38:35;26.48;;;12.45;;
8349;SDS011;60699;48.946;8.412;2022-12-18T11:41:05;27.83;;;13.50;;
8349;SDS011;60699;48.946;8.412;2022-12-18T11:43:35;29.70;;;15.07;;
8349;SDS011;60699;48.946;8.412;2022-12-18T11:46:06;34.10;;;13.00;;
8349;SDS011;60699;48.946;8.412;2022-12-18T11:48:34;44.15;;;17.02;;
8349;SDS011;60699;48.946;8.412;2022-12-18T11:51:04;40.80;;;14.63;;
8349;SDS011;60699;48.946;8.412;2022-12-18T11:53:35;35.08;;;13.10;;
8349;SDS011;60699;48.946;8.412;2022-12-18T11:56:07;35.60;;;15.20;;
8349;SDS011;60699;48.946;8.412;2022-12-18T11:58:43;29.90;;;15.88;;
8349;SDS011;60699;48.946;8.412;2022-12-18T12:01:14;30.60;;;15.85;;
8349;SDS011;60699;48.946;8.412;2022-12-18T12:06:28;21.33;;;11.90;;
8349;SDS011;60699;48.946;8.412;2022-12-18T12:09:02;33.50;;;15.73;;
8349;SDS011;60699;48.946;8.412;2022-12-18T12:11:34;35.42;;;16.65;;
8349;SDS011;60699;48.946;8.412;2022-12-18T12:14:05;36.00;;;15.00;;
8349;SDS011;60699;48.946;8.412;2022-12-18T12:16:34;43.55;;;19.77;;
8349;SDS011;60699;48.946;8.412;2022-12-18T12:19:07;29.38;;;14.15;;
8349;SDS011;60699;48.946;8.412;2022-12-18T12:21:41;47.80;;;20.00;;
8349;SDS011;60699;48.946;8.412;2022-12-18T12:24:12;45.72;;;17.95;;
8349;SDS011;60699;48.946;8.412;2022-12-18T12:26:45;41.97;;;14.88;;
8349;SDS011;60699;48.946;8.412;2022-12-18T12:29:19;47.50;;;15.98;;
8349;SDS011;60699;48.946;8.412;2022-12-18T12:31:56;38.20;;;16.48;;
8349;SDS011;60699;48.946;8.412;2022-12-18T12:34:30;45.65;;;18.63;;
8349;SDS011;60699;48.946;8.412;2022-12-18T12:37:05;33.90;;;17.23;;
8349;SDS011;60699;48.946;8.412;2022-12-18T12:39:35;40.28;;;16.98;;
8349;SDS011;60699;48.946;8.412;2022-12-18T12:42:05;33.65;;;14.75;;
8349;SDS011;60699;48.946;8.412;2022-12-18T12:44:59;36.17;;;16.73;;
8349;SDS011;60699;48.946;8.412;2022-12-18T12:47:28;27.02;;;13.40;;
8349;SDS011;60699;48.946;8.412;2022-12-18T12:49:57;31.23;;;14.07;;
8349;SDS011;60699;48.946;8.412;2022-12-18T12:52:27;29.67;;;14.98;;
8349;SDS011;60699;48.946;8.412;2022-12-18T12:54:57;34.75;;;16.90;;
8349;SDS011;60699;48.946;8.412;2022-12-18T12:57:27;37.95;;;16.83;;
8349;SDS011;60699;48.946;8.412;2022-12-18T12:59:58;29.00;;;16.10;;
8349;SDS011;60699;48.946;8.412;2022-12-18T13:02:28;40.72;;;16.00;;
8349;SDS011;60699;48.946;8.412;2022-12-18T13:04:58;28.27;;;15.88;;
8349;SDS011;60699;48.946;8.412;2022-12-18T13:07:26;39.53;;;19.23;;
8349;SDS011;60699;48.946;8.412;2022-12-18T13:12:52;24.27;;;15.82;;
8349;SDS011;60699;48.946;8.412;2022-12-18T13:15:21;32.28;;;15.68;;
8349;SDS011;60699;48.946;8.412;2022-12-18T13:17:52;36.58;;;16.92;;
8349;SDS011;60699;48.946;8.412;2022-12-18T13:20:32;44.58;;;16.15;;
8349;SDS011;60699;48.946;8.412;2022-12-18T13:22:59;27.35;;;17.17;;
8349;SDS011;60699;48.946;8.412;2022-12-18T13:25:27;38.05;;;17.35;;
8349;SDS011;60699;48.946;8.412;2022-12-18T13:28:09;41.58;;;19.38;;
8349;SDS011;60699;48.946;8.412;2022-12-18T13:30:41;29.75;;;16.85;;
8349;SDS011;60699;48.946;8.412;2022-12-18T13:35:52;34.63;;;17.67;;
8349;SDS011;60699;48.946;8.412;2022-12-18T13:38:20;39.33;;;16.08;;
8349;SDS011;60699;48.946;8.412;2022-12-18T13:40:53;24.52;;;15.57;;
8349;SDS011;60699;48.946;8.412;2022-12-18T13:43:24;38.75;;;17.08;;
8349;SDS011;60699;48.946;8.412;2022-12-18T13:46:00;44.53;;;19.83;;
8349;SDS011;60699;48.946;8.412;2022-12-18T13:48:28;33.08;;;18.60;;
8349;SDS011;60699;48.946;8.412;2022-12-18T13:50:57;29.98;;;16.77;;
8349;SDS011;60699;48.946;8.412;2022-12-18T13:53:26;48.83;;;19.90;;
8349;SDS011;60699;48.946;8.412;2022-12-18T13:55:53;33.42;;;17.00;;
8349;SDS011;60699;48.946;8.412;2022-12-18T13:58:20;35.10;;;20.08;;
8349;SDS011;60699;48.946;8.412;2022-12-18T14:00:49;38.72;;;17.75;;
8349;SDS011;60699;48.946;8.412;2022-12-18T14:03:17;36.97;;;18.98;;
8349;SDS011;60699;48.946;8.412;2022-12-18T14:05:45;41.42;;;18.83;;
8349;SDS011;60699;48.946;8.412;2022-12-18T14:08:12;33.88;;;16.85;;
8349;SDS011;60699;48.946;8.412;2022-12-18T14:10:40;39.70;;;20.30;;
8349;SDS011;60699;48.946;8.412;2022-12-18T14:13:08;33.65;;;18.05;;
8349;SDS011;60699;48.946;8.412;2022-12-18T14:15:36;49.47;;;20.70;;
8349;SDS011;60699;48.946;8.412;2022-12-18T14:18:14;42.08;;;21.00;;
8349;SDS011;60699;48.946;8.412;2022-12-18T14:20:45;35.35;;;19.55;;
8349;SDS011;60699;48.946;8.412;2022-12-18T14:23:25;33.63;;;18.48;;
8349;SDS011;60699;48.946;8.412;2022-12-18T14:25:52;35.55;;;17.88;;
8349;SDS011;60699;48.946;8.412;2022-12-18T14:28:19;30.90;;;17.13;;
8349;SDS011;60699;48.946;8.412;2022-12-18T14:30:47;50.60;;;19.73;;
8349;SDS011;60699;48.946;8.412;2022-12-18T14:33:16;48.75;;;20.10;;
8349;SDS011;60699;48.946;8.412;2022-12-18T14:35:51;47.38;;;20.80;;
8349;SDS011;60699;48.946;8.412;2022-12-18T14:38:23;36.30;;;19.70;;
8349;SDS011;60699;48.946;8.412;2022-12-18T14:40:57;40.78;;;21.15;;
8349;SDS011;60699;48.946;8.412;2022-12-18T14:43:25;49.88;;;21.13;;
8349;SDS011;60699;48.946;8.412;2022-12-18T14:45:52;35.83;;;21.05;;
8349;SDS011;60699;48.946;8.412;2022-12-18T14:48:22;36.70;;;19.73;;
8349;SDS011;60699;48.946;8.412;2022-12-18T14:50:55;36.20;;;18.48;;
8349;SDS011;60699;48.946;8.412;2022-12-18T14:53:24;42.15;;;18.75;;
8349;SDS011;60699;48.946;8.412;2022-12-18T14:55:55;40.53;;;21.65;;
8349;SDS011;60699;48.946;8.412;2022-12-18T14:58:22;32.53;;;18.50;;
8349;SDS011;60699;48.946;8.412;2022-12-18T15:00:49;40.88;;;20.20;;
8349;SDS011;60699;48.946;8.412;2022-12-18T15:03:17;37.13;;;22.48;;